Terminal Aerodrome Forecast
Issued by NWS

Home | Current Version | Previous Version | Text Only | Print | Product List | Glossary On
Versions: 1 2 3 4 5 6 7 8 9 10 11 12
311
FTUS45 KABQ 251120
TAFSAF
TAF
KSAF 251120Z 2512/2612 02006KT P6SM SKC
     FM251700 25012G20KT P6SM SKC
     FM252000 24015G25KT P6SM FEW100
     FM260200 24009KT P6SM FEW100
     FM260600 13006KT P6SM SKC=

USA.gov is the U.S. government's official web portal to all federal, state and local government web resources and services.